Fontana, California
Current Conditions -  °F | °C
As of 1:53 AM on Thursday 27 Nov 2014 (Local Time) from KONT Reporting Station
Clear Clear  
Wind Chill: 13°   Ceiling: Unl
Heat Index: 13°   Visibility: 10mi
Dew Point: -1°   Wind: 0mph
Humidity: 40%   Direction: NA
Pressure: 30.15"   Gusts: NA
Location:  34.1°N, 117.43°W
Report Text: KONT 270953Z 00000KT 10SM CLR 13/M01 A3015 RMK AO2 SLP197 T01281006
Loading
Personal Weather Stations






























Interactive Weather Map New forecast layout! Learn more

10-Day Weather Forecast

Advertisements
Track Severe Weather on mobile